sensor_id;sensor_type;location;lat;lon;timestamp;temperature;humidity
51637;DHT22;37713;53.254;6.460;2023-12-20T00:01:35;5.20;99.90
51637;DHT22;37713;53.254;6.460;2023-12-20T00:04:04;5.20;99.90
51637;DHT22;37713;53.254;6.460;2023-12-20T00:06:30;5.20;99.90
51637;DHT22;37713;53.254;6.460;2023-12-20T00:08:56;5.20;99.90
51637;DHT22;37713;53.254;6.460;2023-12-20T00:11:23;5.10;99.90
51637;DHT22;37713;53.254;6.460;2023-12-20T00:13:49;5.10;99.90
51637;DHT22;37713;53.254;6.460;2023-12-20T00:16:15;5.00;99.90
51637;DHT22;37713;53.254;6.460;2023-12-20T00:18:41;5.00;99.90
51637;DHT22;37713;53.254;6.460;2023-12-20T00:21:07;5.00;99.90
51637;DHT22;37713;53.254;6.460;2023-12-20T00:23:32;5.00;99.90
51637;DHT22;37713;53.254;6.460;2023-12-20T00:25:58;5.00;99.90
51637;DHT22;37713;53.254;6.460;2023-12-20T00:28:24;4.90;99.90
51637;DHT22;37713;53.254;6.460;2023-12-20T00:30:50;4.90;99.90
51637;DHT22;37713;53.254;6.460;2023-12-20T00:33:15;4.90;99.90
51637;DHT22;37713;53.254;6.460;2023-12-20T00:35:41;4.90;99.90
51637;DHT22;37713;53.254;6.460;2023-12-20T00:38:07;4.90;99.90
51637;DHT22;37713;53.254;6.460;2023-12-20T00:40:34;4.90;99.90
51637;DHT22;37713;53.254;6.460;2023-12-20T00:43:00;5.00;99.90
51637;DHT22;37713;53.254;6.460;2023-12-20T00:45:26;5.10;99.90
51637;DHT22;37713;53.254;6.460;2023-12-20T00:47:51;5.20;99.90
51637;DHT22;37713;53.254;6.460;2023-12-20T00:50:18;5.30;99.90
51637;DHT22;37713;53.254;6.460;2023-12-20T00:52:44;5.30;99.90
51637;DHT22;37713;53.254;6.460;2023-12-20T00:55:09;5.40;99.90
51637;DHT22;37713;53.254;6.460;2023-12-20T00:57:35;5.40;99.90
51637;DHT22;37713;53.254;6.460;2023-12-20T01:00:01;5.40;99.90
51637;DHT22;37713;53.254;6.460;2023-12-20T01:02:27;5.40;99.90
51637;DHT22;37713;53.254;6.460;2023-12-20T01:04:53;5.40;99.90
51637;DHT22;37713;53.254;6.460;2023-12-20T01:07:19;5.30;99.90
51637;DHT22;37713;53.254;6.460;2023-12-20T01:09:45;5.30;99.90
51637;DHT22;37713;53.254;6.460;2023-12-20T01:12:11;5.30;99.90
51637;DHT22;37713;53.254;6.460;2023-12-20T01:14:36;5.20;99.90
51637;DHT22;37713;53.254;6.460;2023-12-20T01:17:02;5.20;99.90
51637;DHT22;37713;53.254;6.460;2023-12-20T01:19:28;5.10;99.90
51637;DHT22;37713;53.254;6.460;2023-12-20T01:21:55;5.10;99.90
51637;DHT22;37713;53.254;6.460;2023-12-20T01:24:21;5.10;99.90
51637;DHT22;37713;53.254;6.460;2023-12-20T01:26:47;5.10;99.90
51637;DHT22;37713;53.254;6.460;2023-12-20T01:29:12;5.10;99.90
51637;DHT22;37713;53.254;6.460;2023-12-20T01:31:40;5.20;99.90
51637;DHT22;37713;53.254;6.460;2023-12-20T01:34:06;5.20;99.90
51637;DHT22;37713;53.254;6.460;2023-12-20T01:36:32;5.20;99.90
51637;DHT22;37713;53.254;6.460;2023-12-20T01:38:58;5.30;99.90
51637;DHT22;37713;53.254;6.460;2023-12-20T01:41:24;5.30;99.90
51637;DHT22;37713;53.254;6.460;2023-12-20T01:43:50;5.30;99.90
51637;DHT22;37713;53.254;6.460;2023-12-20T01:46:17;5.40;99.90
51637;DHT22;37713;53.254;6.460;2023-12-20T01:48:43;5.40;99.90
51637;DHT22;37713;53.254;6.460;2023-12-20T01:51:09;5.40;99.90
51637;DHT22;37713;53.254;6.460;2023-12-20T01:53:36;5.40;99.90
51637;DHT22;37713;53.254;6.460;2023-12-20T01:56:02;5.40;99.90
51637;DHT22;37713;53.254;6.460;2023-12-20T01:58:28;5.50;99.90
51637;DHT22;37713;53.254;6.460;2023-12-20T02:00:54;5.50;99.90
51637;DHT22;37713;53.254;6.460;2023-12-20T02:03:21;5.60;99.90
51637;DHT22;37713;53.254;6.460;2023-12-20T02:05:47;5.60;99.90
51637;DHT22;37713;53.254;6.460;2023-12-20T02:08:13;5.60;99.90
51637;DHT22;37713;53.254;6.460;2023-12-20T02:10:40;5.60;99.90
51637;DHT22;37713;53.254;6.460;2023-12-20T02:13:06;5.60;99.90
51637;DHT22;37713;53.254;6.460;2023-12-20T02:15:32;5.60;99.90
51637;DHT22;37713;53.254;6.460;2023-12-20T02:17:59;5.60;99.90
51637;DHT22;37713;53.254;6.460;2023-12-20T02:20:25;5.60;99.90
51637;DHT22;37713;53.254;6.460;2023-12-20T02:22:51;5.60;99.90
51637;DHT22;37713;53.254;6.460;2023-12-20T02:25:17;5.60;99.90
51637;DHT22;37713;53.254;6.460;2023-12-20T02:27:43;5.60;99.90
51637;DHT22;37713;53.254;6.460;2023-12-20T02:30:10;5.60;99.90
51637;DHT22;37713;53.254;6.460;2023-12-20T02:32:36;5.70;99.90
51637;DHT22;37713;53.254;6.460;2023-12-20T02:35:01;5.70;99.90
51637;DHT22;37713;53.254;6.460;2023-12-20T02:37:27;5.70;99.90
51637;DHT22;37713;53.254;6.460;2023-12-20T02:39:53;5.80;99.90
51637;DHT22;37713;53.254;6.460;2023-12-20T02:42:19;5.80;99.90
51637;DHT22;37713;53.254;6.460;2023-12-20T02:44:44;5.80;99.90
51637;DHT22;37713;53.254;6.460;2023-12-20T02:47:10;5.80;99.90
51637;DHT22;37713;53.254;6.460;2023-12-20T02:49:36;5.80;99.90
51637;DHT22;37713;53.254;6.460;2023-12-20T02:52:02;5.80;99.90
51637;DHT22;37713;53.254;6.460;2023-12-20T02:54:28;5.80;99.90
51637;DHT22;37713;53.254;6.460;2023-12-20T02:56:54;5.80;99.90
51637;DHT22;37713;53.254;6.460;2023-12-20T02:59:20;5.80;99.90
51637;DHT22;37713;53.254;6.460;2023-12-20T03:01:46;5.90;99.90
51637;DHT22;37713;53.254;6.460;2023-12-20T03:04:12;5.90;99.90
51637;DHT22;37713;53.254;6.460;2023-12-20T03:06:38;5.90;99.90
51637;DHT22;37713;53.254;6.460;2023-12-20T03:09:05;5.80;99.90
51637;DHT22;37713;53.254;6.460;2023-12-20T03:11:31;5.90;99.90
51637;DHT22;37713;53.254;6.460;2023-12-20T03:13:57;5.90;99.90
51637;DHT22;37713;53.254;6.460;2023-12-20T03:16:23;5.90;99.90
51637;DHT22;37713;53.254;6.460;2023-12-20T03:18:49;5.90;99.90
51637;DHT22;37713;53.254;6.460;2023-12-20T03:21:15;6.00;99.90
51637;DHT22;37713;53.254;6.460;2023-12-20T03:23:41;6.00;99.90
51637;DHT22;37713;53.254;6.460;2023-12-20T03:26:07;6.10;99.90
51637;DHT22;37713;53.254;6.460;2023-12-20T03:28:33;6.10;99.90
51637;DHT22;37713;53.254;6.460;2023-12-20T03:31:00;6.10;99.90
51637;DHT22;37713;53.254;6.460;2023-12-20T03:33:25;6.00;99.90
51637;DHT22;37713;53.254;6.460;2023-12-20T03:35:51;6.00;99.90
51637;DHT22;37713;53.254;6.460;2023-12-20T03:38:17;6.00;99.90
51637;DHT22;37713;53.254;6.460;2023-12-20T03:40:43;6.00;99.90
51637;DHT22;37713;53.254;6.460;2023-12-20T03:43:09;6.00;99.90
51637;DHT22;37713;53.254;6.460;2023-12-20T03:45:35;5.90;99.90
51637;DHT22;37713;53.254;6.460;2023-12-20T03:48:01;5.90;99.90
51637;DHT22;37713;53.254;6.460;2023-12-20T03:50:27;5.90;99.90
51637;DHT22;37713;53.254;6.460;2023-12-20T03:52:53;5.90;99.90
51637;DHT22;37713;53.254;6.460;2023-12-20T03:55:18;5.90;99.90
51637;DHT22;37713;53.254;6.460;2023-12-20T03:57:44;5.90;99.90
51637;DHT22;37713;53.254;6.460;2023-12-20T04:00:11;5.90;99.90
51637;DHT22;37713;53.254;6.460;2023-12-20T04:02:38;5.90;99.90
51637;DHT22;37713;53.254;6.460;2023-12-20T04:05:05;5.80;99.90
51637;DHT22;37713;53.254;6.460;2023-12-20T04:07:31;5.90;99.90
51637;DHT22;37713;53.254;6.460;2023-12-20T04:09:57;5.80;99.90
51637;DHT22;37713;53.254;6.460;2023-12-20T04:12:22;5.90;99.90
51637;DHT22;37713;53.254;6.460;2023-12-20T04:14:48;5.80;99.90
51637;DHT22;37713;53.254;6.460;2023-12-20T04:17:15;5.90;99.90
51637;DHT22;37713;53.254;6.460;2023-12-20T04:19:44;5.90;99.90
51637;DHT22;37713;53.254;6.460;2023-12-20T04:22:10;6.00;99.90
51637;DHT22;37713;53.254;6.460;2023-12-20T04:24:36;6.00;99.90
51637;DHT22;37713;53.254;6.460;2023-12-20T04:27:02;6.10;99.90
51637;DHT22;37713;53.254;6.460;2023-12-20T04:29:28;6.10;99.90
51637;DHT22;37713;53.254;6.460;2023-12-20T04:31:54;6.20;99.90
51637;DHT22;37713;53.254;6.460;2023-12-20T04:34:20;6.20;99.90
51637;DHT22;37713;53.254;6.460;2023-12-20T04:36:46;6.20;99.90
51637;DHT22;37713;53.254;6.460;2023-12-20T04:39:13;6.30;99.90
51637;DHT22;37713;53.254;6.460;2023-12-20T04:41:39;6.30;99.90
51637;DHT22;37713;53.254;6.460;2023-12-20T04:44:06;6.30;99.90
51637;DHT22;37713;53.254;6.460;2023-12-20T04:46:32;6.40;99.90
51637;DHT22;37713;53.254;6.460;2023-12-20T04:48:57;6.40;99.90
51637;DHT22;37713;53.254;6.460;2023-12-20T04:51:23;6.40;99.90
51637;DHT22;37713;53.254;6.460;2023-12-20T04:53:49;6.40;99.90
51637;DHT22;37713;53.254;6.460;2023-12-20T04:56:15;6.40;99.90
51637;DHT22;37713;53.254;6.460;2023-12-20T04:58:42;6.50;99.90
51637;DHT22;37713;53.254;6.460;2023-12-20T05:01:08;6.50;99.90
51637;DHT22;37713;53.254;6.460;2023-12-20T05:03:35;6.50;99.90
51637;DHT22;37713;53.254;6.460;2023-12-20T05:06:01;6.50;99.90
51637;DHT22;37713;53.254;6.460;2023-12-20T05:08:27;6.60;99.90
51637;DHT22;37713;53.254;6.460;2023-12-20T05:10:57;6.60;99.90
51637;DHT22;37713;53.254;6.460;2023-12-20T05:13:22;6.60;99.90
51637;DHT22;37713;53.254;6.460;2023-12-20T05:15:48;6.60;99.90
51637;DHT22;37713;53.254;6.460;2023-12-20T05:18:14;6.60;99.90
51637;DHT22;37713;53.254;6.460;2023-12-20T05:20:40;6.60;99.90
51637;DHT22;37713;53.254;6.460;2023-12-20T05:23:06;6.60;99.90
51637;DHT22;37713;53.254;6.460;2023-12-20T05:25:32;6.60;99.90
51637;DHT22;37713;53.254;6.460;2023-12-20T05:27:58;6.70;99.90
51637;DHT22;37713;53.254;6.460;2023-12-20T05:30:24;6.70;99.90
51637;DHT22;37713;53.254;6.460;2023-12-20T05:32:50;6.70;99.90
51637;DHT22;37713;53.254;6.460;2023-12-20T05:35:16;6.70;99.90
51637;DHT22;37713;53.254;6.460;2023-12-20T05:37:42;6.70;99.90
51637;DHT22;37713;53.254;6.460;2023-12-20T05:40:09;6.80;99.90
51637;DHT22;37713;53.254;6.460;2023-12-20T05:42:37;6.70;99.90
51637;DHT22;37713;53.254;6.460;2023-12-20T05:45:04;6.80;99.90
51637;DHT22;37713;53.254;6.460;2023-12-20T05:47:31;6.80;99.90
51637;DHT22;37713;53.254;6.460;2023-12-20T05:49:56;6.80;99.90
51637;DHT22;37713;53.254;6.460;2023-12-20T05:52:22;6.80;99.90
51637;DHT22;37713;53.254;6.460;2023-12-20T05:54:48;6.80;99.90
51637;DHT22;37713;53.254;6.460;2023-12-20T05:57:14;6.80;99.90
51637;DHT22;37713;53.254;6.460;2023-12-20T05:59:40;6.80;99.90
51637;DHT22;37713;53.254;6.460;2023-12-20T06:02:06;6.80;99.90
51637;DHT22;37713;53.254;6.460;2023-12-20T06:04:31;6.90;99.90
51637;DHT22;37713;53.254;6.460;2023-12-20T06:06:58;6.90;99.90
51637;DHT22;37713;53.254;6.460;2023-12-20T06:09:23;6.90;99.90
51637;DHT22;37713;53.254;6.460;2023-12-20T06:11:49;6.90;99.90
51637;DHT22;37713;53.254;6.460;2023-12-20T06:14:16;6.90;99.90
51637;DHT22;37713;53.254;6.460;2023-12-20T06:16:42;6.90;99.90
51637;DHT22;37713;53.254;6.460;2023-12-20T06:19:08;6.90;99.90
51637;DHT22;37713;53.254;6.460;2023-12-20T06:21:34;6.90;99.90
51637;DHT22;37713;53.254;6.460;2023-12-20T06:24:00;6.90;99.90
51637;DHT22;37713;53.254;6.460;2023-12-20T06:26:26;6.90;99.90
51637;DHT22;37713;53.254;6.460;2023-12-20T06:28:51;6.90;99.90
51637;DHT22;37713;53.254;6.460;2023-12-20T06:31:17;7.00;99.90
51637;DHT22;37713;53.254;6.460;2023-12-20T06:33:43;7.00;99.90
51637;DHT22;37713;53.254;6.460;2023-12-20T06:36:13;7.00;99.90
51637;DHT22;37713;53.254;6.460;2023-12-20T06:38:39;7.00;99.90
51637;DHT22;37713;53.254;6.460;2023-12-20T06:41:05;7.00;99.90
51637;DHT22;37713;53.254;6.460;2023-12-20T06:43:31;7.00;99.90
51637;DHT22;37713;53.254;6.460;2023-12-20T06:46:00;7.00;99.90
51637;DHT22;37713;53.254;6.460;2023-12-20T06:48:26;7.10;99.90
51637;DHT22;37713;53.254;6.460;2023-12-20T06:50:53;7.10;99.90
51637;DHT22;37713;53.254;6.460;2023-12-20T06:53:18;7.00;99.90
51637;DHT22;37713;53.254;6.460;2023-12-20T06:55:44;7.00;99.90
51637;DHT22;37713;53.254;6.460;2023-12-20T06:58:10;7.10;99.90
51637;DHT22;37713;53.254;6.460;2023-12-20T07:00:36;7.10;99.90
51637;DHT22;37713;53.254;6.460;2023-12-20T07:03:02;7.10;99.90
51637;DHT22;37713;53.254;6.460;2023-12-20T07:05:27;7.10;99.90
51637;DHT22;37713;53.254;6.460;2023-12-20T07:07:53;7.10;99.90
51637;DHT22;37713;53.254;6.460;2023-12-20T07:10:19;7.10;99.90
51637;DHT22;37713;53.254;6.460;2023-12-20T07:12:45;7.10;99.90
51637;DHT22;37713;53.254;6.460;2023-12-20T07:15:11;7.20;99.90
51637;DHT22;37713;53.254;6.460;2023-12-20T07:17:37;7.20;99.90
51637;DHT22;37713;53.254;6.460;2023-12-20T07:20:03;7.20;99.90
51637;DHT22;37713;53.254;6.460;2023-12-20T07:22:30;7.20;99.90
51637;DHT22;37713;53.254;6.460;2023-12-20T07:24:59;7.30;99.90
51637;DHT22;37713;53.254;6.460;2023-12-20T07:27:26;7.20;99.90
51637;DHT22;37713;53.254;6.460;2023-12-20T07:29:52;7.30;99.90
51637;DHT22;37713;53.254;6.460;2023-12-20T07:32:18;7.20;99.90
51637;DHT22;37713;53.254;6.460;2023-12-20T07:34:44;7.20;99.90
51637;DHT22;37713;53.254;6.460;2023-12-20T07:37:10;7.30;99.90
51637;DHT22;37713;53.254;6.460;2023-12-20T07:39:39;7.20;99.90
51637;DHT22;37713;53.254;6.460;2023-12-20T07:42:06;7.20;99.90
51637;DHT22;37713;53.254;6.460;2023-12-20T07:44:32;7.20;99.90
51637;DHT22;37713;53.254;6.460;2023-12-20T07:46:57;7.30;99.90
51637;DHT22;37713;53.254;6.460;2023-12-20T07:49:23;7.30;99.90
51637;DHT22;37713;53.254;6.460;2023-12-20T07:51:49;7.30;99.90
51637;DHT22;37713;53.254;6.460;2023-12-20T07:54:15;7.30;99.90
51637;DHT22;37713;53.254;6.460;2023-12-20T07:56:42;7.30;99.90
51637;DHT22;37713;53.254;6.460;2023-12-20T07:59:07;7.40;99.90
51637;DHT22;37713;53.254;6.460;2023-12-20T08:01:33;7.30;99.90
51637;DHT22;37713;53.254;6.460;2023-12-20T08:03:59;7.30;99.90
51637;DHT22;37713;53.254;6.460;2023-12-20T08:06:27;7.30;99.90
51637;DHT22;37713;53.254;6.460;2023-12-20T08:08:53;7.20;99.90
51637;DHT22;37713;53.254;6.460;2023-12-20T08:11:19;7.30;99.90
51637;DHT22;37713;53.254;6.460;2023-12-20T08:13:44;7.30;99.90
51637;DHT22;37713;53.254;6.460;2023-12-20T08:16:10;7.30;99.90
51637;DHT22;37713;53.254;6.460;2023-12-20T08:18:39;7.30;99.90
51637;DHT22;37713;53.254;6.460;2023-12-20T08:21:04;7.30;99.90
51637;DHT22;37713;53.254;6.460;2023-12-20T08:23:33;7.30;99.90
51637;DHT22;37713;53.254;6.460;2023-12-20T08:26:06;7.30;99.90
51637;DHT22;37713;53.254;6.460;2023-12-20T08:28:33;7.30;99.90
51637;DHT22;37713;53.254;6.460;2023-12-20T08:31:00;7.30;99.90
51637;DHT22;37713;53.254;6.460;2023-12-20T08:33:26;7.30;99.90
51637;DHT22;37713;53.254;6.460;2023-12-20T08:35:52;7.10;99.90
51637;DHT22;37713;53.254;6.460;2023-12-20T08:38:17;6.80;99.90
51637;DHT22;37713;53.254;6.460;2023-12-20T08:40:44;6.60;99.90
51637;DHT22;37713;53.254;6.460;2023-12-20T08:43:10;6.40;99.90
51637;DHT22;37713;53.254;6.460;2023-12-20T08:45:36;6.20;99.90
51637;DHT22;37713;53.254;6.460;2023-12-20T08:48:02;6.10;99.90
51637;DHT22;37713;53.254;6.460;2023-12-20T08:50:29;5.90;99.90
51637;DHT22;37713;53.254;6.460;2023-12-20T08:52:55;5.80;99.90
51637;DHT22;37713;53.254;6.460;2023-12-20T08:55:21;5.70;99.90
51637;DHT22;37713;53.254;6.460;2023-12-20T08:57:47;5.60;99.90
51637;DHT22;37713;53.254;6.460;2023-12-20T09:00:13;5.60;99.90
51637;DHT22;37713;53.254;6.460;2023-12-20T09:02:39;5.60;99.90
51637;DHT22;37713;53.254;6.460;2023-12-20T09:05:05;5.60;99.90
51637;DHT22;37713;53.254;6.460;2023-12-20T09:07:31;5.60;99.90
51637;DHT22;37713;53.254;6.460;2023-12-20T09:09:58;5.60;99.90
51637;DHT22;37713;53.254;6.460;2023-12-20T09:12:24;5.60;99.90
51637;DHT22;37713;53.254;6.460;2023-12-20T09:14:51;5.70;99.90
51637;DHT22;37713;53.254;6.460;2023-12-20T09:17:18;5.60;99.90
51637;DHT22;37713;53.254;6.460;2023-12-20T09:19:44;5.60;99.90
51637;DHT22;37713;53.254;6.460;2023-12-20T09:22:10;5.60;99.90
51637;DHT22;37713;53.254;6.460;2023-12-20T09:24:36;5.60;99.90
51637;DHT22;37713;53.254;6.460;2023-12-20T09:27:03;5.60;99.90
51637;DHT22;37713;53.254;6.460;2023-12-20T09:29:29;5.60;99.90
51637;DHT22;37713;53.254;6.460;2023-12-20T09:31:55;5.60;99.90
51637;DHT22;37713;53.254;6.460;2023-12-20T09:34:21;5.50;99.90
51637;DHT22;37713;53.254;6.460;2023-12-20T09:36:47;5.50;99.90
51637;DHT22;37713;53.254;6.460;2023-12-20T09:39:14;5.50;99.90
51637;DHT22;37713;53.254;6.460;2023-12-20T09:41:44;5.50;99.90
51637;DHT22;37713;53.254;6.460;2023-12-20T09:44:16;5.50;99.90
51637;DHT22;37713;53.254;6.460;2023-12-20T09:46:44;5.60;99.90
51637;DHT22;37713;53.254;6.460;2023-12-20T09:49:11;5.60;99.90
51637;DHT22;37713;53.254;6.460;2023-12-20T09:51:38;5.70;99.90
51637;DHT22;37713;53.254;6.460;2023-12-20T09:54:05;5.70;99.90
51637;DHT22;37713;53.254;6.460;2023-12-20T09:56:31;5.70;99.90
51637;DHT22;37713;53.254;6.460;2023-12-20T09:58:57;5.60;99.90
51637;DHT22;37713;53.254;6.460;2023-12-20T10:01:28;5.70;99.90
51637;DHT22;37713;53.254;6.460;2023-12-20T10:03:55;5.70;99.90
51637;DHT22;37713;53.254;6.460;2023-12-20T10:06:24;5.80;99.90
51637;DHT22;37713;53.254;6.460;2023-12-20T10:08:50;5.90;99.90
51637;DHT22;37713;53.254;6.460;2023-12-20T10:11:15;5.80;99.90
51637;DHT22;37713;53.254;6.460;2023-12-20T10:13:42;6.10;99.90
51637;DHT22;37713;53.254;6.460;2023-12-20T10:16:08;6.20;99.90
51637;DHT22;37713;53.254;6.460;2023-12-20T10:18:34;6.20;99.90
51637;DHT22;37713;53.254;6.460;2023-12-20T10:21:00;6.30;99.90
51637;DHT22;37713;53.254;6.460;2023-12-20T10:23:26;6.30;99.90
51637;DHT22;37713;53.254;6.460;2023-12-20T10:25:59;6.40;99.90
51637;DHT22;37713;53.254;6.460;2023-12-20T10:28:25;6.40;99.90
51637;DHT22;37713;53.254;6.460;2023-12-20T10:30:56;6.50;99.90
51637;DHT22;37713;53.254;6.460;2023-12-20T10:33:30;6.60;99.90
51637;DHT22;37713;53.254;6.460;2023-12-20T10:35:58;6.70;99.90
51637;DHT22;37713;53.254;6.460;2023-12-20T10:38:23;6.70;99.90
51637;DHT22;37713;53.254;6.460;2023-12-20T10:40:54;6.80;99.90
51637;DHT22;37713;53.254;6.460;2023-12-20T10:43:23;6.70;99.90
51637;DHT22;37713;53.254;6.460;2023-12-20T10:45:52;6.60;99.90
51637;DHT22;37713;53.254;6.460;2023-12-20T10:48:18;6.60;99.90
51637;DHT22;37713;53.254;6.460;2023-12-20T10:50:44;6.50;99.90
51637;DHT22;37713;53.254;6.460;2023-12-20T10:53:10;6.50;99.90
51637;DHT22;37713;53.254;6.460;2023-12-20T10:55:38;6.50;99.90
51637;DHT22;37713;53.254;6.460;2023-12-20T10:58:07;6.40;99.90
51637;DHT22;37713;53.254;6.460;2023-12-20T11:00:41;6.40;99.90
51637;DHT22;37713;53.254;6.460;2023-12-20T11:03:11;6.40;99.90
51637;DHT22;37713;53.254;6.460;2023-12-20T11:05:53;6.40;99.90
51637;DHT22;37713;53.254;6.460;2023-12-20T11:08:51;6.50;99.90
51637;DHT22;37713;53.254;6.460;2023-12-20T11:11:27;6.50;99.90
51637;DHT22;37713;53.254;6.460;2023-12-20T11:14:00;6.50;99.90
51637;DHT22;37713;53.254;6.460;2023-12-20T11:16:26;6.60;99.90
51637;DHT22;37713;53.254;6.460;2023-12-20T11:18:52;6.60;99.90
51637;DHT22;37713;53.254;6.460;2023-12-20T11:21:18;6.60;99.90
51637;DHT22;37713;53.254;6.460;2023-12-20T11:23:44;6.60;99.90
51637;DHT22;37713;53.254;6.460;2023-12-20T11:26:09;6.50;99.90
51637;DHT22;37713;53.254;6.460;2023-12-20T11:28:35;6.50;99.90
51637;DHT22;37713;53.254;6.460;2023-12-20T11:31:02;6.50;99.90
51637;DHT22;37713;53.254;6.460;2023-12-20T11:33:36;6.60;99.90
51637;DHT22;37713;53.254;6.460;2023-12-20T11:36:02;6.70;99.90
51637;DHT22;37713;53.254;6.460;2023-12-20T11:38:57;6.80;99.90
51637;DHT22;37713;53.254;6.460;2023-12-20T11:41:23;6.90;99.90
51637;DHT22;37713;53.254;6.460;2023-12-20T11:43:53;6.90;99.90
51637;DHT22;37713;53.254;6.460;2023-12-20T11:46:18;6.90;99.90
51637;DHT22;37713;53.254;6.460;2023-12-20T11:48:44;7.00;99.90
51637;DHT22;37713;53.254;6.460;2023-12-20T11:51:11;6.90;99.90
51637;DHT22;37713;53.254;6.460;2023-12-20T11:53:38;6.90;99.90
51637;DHT22;37713;53.254;6.460;2023-12-20T11:56:08;6.90;99.90
51637;DHT22;37713;53.254;6.460;2023-12-20T11:58:34;6.90;99.90
51637;DHT22;37713;53.254;6.460;2023-12-20T12:01:00;6.90;99.90
51637;DHT22;37713;53.254;6.460;2023-12-20T12:03:28;6.90;99.90
51637;DHT22;37713;53.254;6.460;2023-12-20T12:05:53;6.90;99.90
51637;DHT22;37713;53.254;6.460;2023-12-20T12:08:19;6.90;99.90
51637;DHT22;37713;53.254;6.460;2023-12-20T12:10:45;6.90;99.90
51637;DHT22;37713;53.254;6.460;2023-12-20T12:13:11;6.90;99.90
51637;DHT22;37713;53.254;6.460;2023-12-20T12:15:37;6.90;99.90
51637;DHT22;37713;53.254;6.460;2023-12-20T12:18:04;6.90;99.90
51637;DHT22;37713;53.254;6.460;2023-12-20T12:20:30;6.90;99.90
51637;DHT22;37713;53.254;6.460;2023-12-20T12:23:04;6.90;99.90
51637;DHT22;37713;53.254;6.460;2023-12-20T12:25:34;6.90;99.90
51637;DHT22;37713;53.254;6.460;2023-12-20T12:28:01;6.90;99.90
51637;DHT22;37713;53.254;6.460;2023-12-20T12:30:27;6.90;99.90
51637;DHT22;37713;53.254;6.460;2023-12-20T12:32:54;6.90;99.90
51637;DHT22;37713;53.254;6.460;2023-12-20T12:35:22;6.80;99.90
51637;DHT22;37713;53.254;6.460;2023-12-20T12:37:48;6.80;99.90
51637;DHT22;37713;53.254;6.460;2023-12-20T12:40:16;6.80;99.90
51637;DHT22;37713;53.254;6.460;2023-12-20T12:42:45;6.80;99.90
51637;DHT22;37713;53.254;6.460;2023-12-20T12:45:11;6.80;99.90
51637;DHT22;37713;53.254;6.460;2023-12-20T12:47:37;6.90;99.90
51637;DHT22;37713;53.254;6.460;2023-12-20T12:50:04;6.90;99.90
51637;DHT22;37713;53.254;6.460;2023-12-20T12:52:33;6.90;99.90
51637;DHT22;37713;53.254;6.460;2023-12-20T12:54:58;7.00;99.90
51637;DHT22;37713;53.254;6.460;2023-12-20T12:57:24;7.00;99.90
51637;DHT22;37713;53.254;6.460;2023-12-20T12:59:51;7.00;99.90
51637;DHT22;37713;53.254;6.460;2023-12-20T13:02:16;7.10;99.90
51637;DHT22;37713;53.254;6.460;2023-12-20T13:04:43;7.10;99.90
51637;DHT22;37713;53.254;6.460;2023-12-20T13:07:09;7.00;99.90
51637;DHT22;37713;53.254;6.460;2023-12-20T13:09:37;7.00;99.90
51637;DHT22;37713;53.254;6.460;2023-12-20T13:12:06;7.00;99.90
51637;DHT22;37713;53.254;6.460;2023-12-20T13:14:34;7.00;99.90
51637;DHT22;37713;53.254;6.460;2023-12-20T13:17:01;7.00;99.90
51637;DHT22;37713;53.254;6.460;2023-12-20T13:19:26;7.00;99.90
51637;DHT22;37713;53.254;6.460;2023-12-20T13:21:53;6.90;99.90
51637;DHT22;37713;53.254;6.460;2023-12-20T13:24:19;6.90;99.90
51637;DHT22;37713;53.254;6.460;2023-12-20T13:26:44;6.90;99.90
51637;DHT22;37713;53.254;6.460;2023-12-20T13:29:10;6.90;99.90
51637;DHT22;37713;53.254;6.460;2023-12-20T13:31:37;6.90;99.90
51637;DHT22;37713;53.254;6.460;2023-12-20T13:34:04;6.90;99.90
51637;DHT22;37713;53.254;6.460;2023-12-20T13:36:29;6.90;99.90
51637;DHT22;37713;53.254;6.460;2023-12-20T13:38:55;6.80;99.90
51637;DHT22;37713;53.254;6.460;2023-12-20T13:41:22;6.80;99.90
51637;DHT22;37713;53.254;6.460;2023-12-20T13:43:47;6.80;99.90
51637;DHT22;37713;53.254;6.460;2023-12-20T13:46:13;6.80;99.90
51637;DHT22;37713;53.254;6.460;2023-12-20T13:48:39;6.70;99.90
51637;DHT22;37713;53.254;6.460;2023-12-20T13:51:05;6.70;99.90
51637;DHT22;37713;53.254;6.460;2023-12-20T13:53:32;6.70;99.90
51637;DHT22;37713;53.254;6.460;2023-12-20T13:55:57;6.70;99.90
51637;DHT22;37713;53.254;6.460;2023-12-20T13:58:27;6.60;99.90
51637;DHT22;37713;53.254;6.460;2023-12-20T14:00:53;6.60;99.90
51637;DHT22;37713;53.254;6.460;2023-12-20T14:03:19;6.60;99.90
51637;DHT22;37713;53.254;6.460;2023-12-20T14:05:45;6.60;99.90
51637;DHT22;37713;53.254;6.460;2023-12-20T14:08:11;6.50;99.90
51637;DHT22;37713;53.254;6.460;2023-12-20T14:10:37;6.50;99.90
51637;DHT22;37713;53.254;6.460;2023-12-20T14:13:04;6.50;99.90
51637;DHT22;37713;53.254;6.460;2023-12-20T14:15:30;6.50;99.90
51637;DHT22;37713;53.254;6.460;2023-12-20T14:18:06;6.40;99.90
51637;DHT22;37713;53.254;6.460;2023-12-20T14:20:36;6.40;99.90
51637;DHT22;37713;53.254;6.460;2023-12-20T14:23:02;6.40;99.90
51637;DHT22;37713;53.254;6.460;2023-12-20T14:25:28;6.40;99.90
51637;DHT22;37713;53.254;6.460;2023-12-20T14:27:54;6.40;99.90
51637;DHT22;37713;53.254;6.460;2023-12-20T14:30:20;6.30;99.90
51637;DHT22;37713;53.254;6.460;2023-12-20T14:32:46;6.30;99.90
51637;DHT22;37713;53.254;6.460;2023-12-20T14:35:13;6.40;99.90
51637;DHT22;37713;53.254;6.460;2023-12-20T14:37:39;6.30;99.90
51637;DHT22;37713;53.254;6.460;2023-12-20T14:40:10;6.30;99.90
51637;DHT22;37713;53.254;6.460;2023-12-20T14:42:36;6.30;99.90
51637;DHT22;37713;53.254;6.460;2023-12-20T14:45:03;6.30;99.90
51637;DHT22;37713;53.254;6.460;2023-12-20T14:47:29;6.30;99.90
51637;DHT22;37713;53.254;6.460;2023-12-20T14:49:55;6.20;99.90
51637;DHT22;37713;53.254;6.460;2023-12-20T14:52:21;6.20;99.90
51637;DHT22;37713;53.254;6.460;2023-12-20T14:54:46;6.20;99.90
51637;DHT22;37713;53.254;6.460;2023-12-20T14:57:12;6.20;99.90
51637;DHT22;37713;53.254;6.460;2023-12-20T14:59:38;6.20;99.90
51637;DHT22;37713;53.254;6.460;2023-12-20T15:02:04;6.20;99.90
51637;DHT22;37713;53.254;6.460;2023-12-20T15:04:31;6.20;99.90
51637;DHT22;37713;53.254;6.460;2023-12-20T15:06:57;6.20;99.90
51637;DHT22;37713;53.254;6.460;2023-12-20T15:09:23;6.20;99.90
51637;DHT22;37713;53.254;6.460;2023-12-20T15:11:49;6.20;99.90
51637;DHT22;37713;53.254;6.460;2023-12-20T15:14:15;6.20;99.90
51637;DHT22;37713;53.254;6.460;2023-12-20T15:16:48;6.20;99.90
51637;DHT22;37713;53.254;6.460;2023-12-20T15:19:14;6.20;99.90
51637;DHT22;37713;53.254;6.460;2023-12-20T15:21:40;6.20;99.90
51637;DHT22;37713;53.254;6.460;2023-12-20T15:24:11;6.10;99.90
51637;DHT22;37713;53.254;6.460;2023-12-20T15:26:43;6.20;99.90
51637;DHT22;37713;53.254;6.460;2023-12-20T15:29:10;6.10;99.90
51637;DHT22;37713;53.254;6.460;2023-12-20T15:31:42;6.20;99.90
51637;DHT22;37713;53.254;6.460;2023-12-20T15:34:08;6.10;99.90
51637;DHT22;37713;53.254;6.460;2023-12-20T15:36:34;6.10;99.90
51637;DHT22;37713;53.254;6.460;2023-12-20T15:39:00;6.10;99.90
51637;DHT22;37713;53.254;6.460;2023-12-20T15:41:25;6.10;99.90